sensor_id;sensor_type;location;lat;lon;timestamp;pressure;altitude;pressure_sealevel;temperature;humidity
66801;BME280;53703;50.326;19.122;2023-04-15T00:01:36;97357.34;;;19.66;43.96
66801;BME280;53703;50.326;19.122;2023-04-15T00:04:30;97358.92;;;19.61;44.08
66801;BME280;53703;50.326;19.122;2023-04-15T00:07:25;97361.06;;;19.74;43.94
66801;BME280;53703;50.326;19.122;2023-04-15T00:10:19;97360.03;;;19.67;43.91
66801;BME280;53703;50.326;19.122;2023-04-15T00:13:13;97364.86;;;19.73;44.06
66801;BME280;53703;50.326;19.122;2023-04-15T00:16:09;97361.54;;;19.68;44.06
66801;BME280;53703;50.326;19.122;2023-04-15T00:19:04;97373.71;;;19.67;44.05
66801;BME280;53703;50.326;19.122;2023-04-15T00:21:45;97370.40;;;19.70;44.05
66801;BME280;53703;50.326;19.122;2023-04-15T00:24:39;97367.86;;;19.65;44.03
66801;BME280;53703;50.326;19.122;2023-04-15T00:27:34;97375.14;;;19.67;43.94
66801;BME280;53703;50.326;19.122;2023-04-15T00:30:28;97373.01;;;19.66;43.96
66801;BME280;53703;50.326;19.122;2023-04-15T00:33:22;97371.10;;;19.70;43.90
66801;BME280;53703;50.326;19.122;2023-04-15T00:36:16;97377.80;;;19.60;44.06
66801;BME280;53703;50.326;19.122;2023-04-15T00:39:11;97385.40;;;19.60;43.97
66801;BME280;53703;50.326;19.122;2023-04-15T00:42:04;97398.36;;;19.59;43.83
66801;BME280;53703;50.326;19.122;2023-04-15T00:44:58;97398.46;;;19.63;43.75
66801;BME280;53703;50.326;19.122;2023-04-15T00:47:52;97405.08;;;19.60;43.73
66801;BME280;53703;50.326;19.122;2023-04-15T00:50:48;97408.34;;;19.63;43.77
66801;BME280;53703;50.326;19.122;2023-04-15T00:53:42;97418.23;;;19.63;43.70
66801;BME280;53703;50.326;19.122;2023-04-15T00:56:37;97416.94;;;19.58;43.73
66801;BME280;53703;50.326;19.122;2023-04-15T00:59:31;97422.81;;;19.64;43.74
66801;BME280;53703;50.326;19.122;2023-04-15T01:02:25;97420.34;;;19.61;43.70
66801;BME280;53703;50.326;19.122;2023-04-15T01:05:19;97423.42;;;19.58;43.71
66801;BME280;53703;50.326;19.122;2023-04-15T01:08:13;97425.79;;;19.59;43.93
66801;BME280;53703;50.326;19.122;2023-04-15T01:11:07;97420.19;;;19.58;43.81
66801;BME280;53703;50.326;19.122;2023-04-15T01:14:02;97416.85;;;19.56;43.92
66801;BME280;53703;50.326;19.122;2023-04-15T01:16:56;97414.79;;;19.54;44.12
66801;BME280;53703;50.326;19.122;2023-04-15T01:19:50;97415.57;;;19.51;43.70
66801;BME280;53703;50.326;19.122;2023-04-15T01:22:44;97415.66;;;19.54;44.08
66801;BME280;53703;50.326;19.122;2023-04-15T01:25:37;97417.00;;;19.52;44.10
66801;BME280;53703;50.326;19.122;2023-04-15T01:28:32;97415.95;;;19.44;44.41
66801;BME280;53703;50.326;19.122;2023-04-15T01:31:25;97409.65;;;19.16;45.00
66801;BME280;53703;50.326;19.122;2023-04-15T01:34:19;97414.11;;;19.21;44.86
66801;BME280;53703;50.326;19.122;2023-04-15T01:37:13;97420.96;;;19.36;45.02
66801;BME280;53703;50.326;19.122;2023-04-15T01:40:10;97420.63;;;19.51;45.09
66801;BME280;53703;50.326;19.122;2023-04-15T01:43:05;97418.39;;;19.66;44.56
66801;BME280;53703;50.326;19.122;2023-04-15T01:45:58;97417.51;;;19.61;44.64
66801;BME280;53703;50.326;19.122;2023-04-15T01:48:53;97417.23;;;19.56;44.59
66801;BME280;53703;50.326;19.122;2023-04-15T01:51:47;97424.04;;;19.55;44.79
66801;BME280;53703;50.326;19.122;2023-04-15T01:54:40;97423.50;;;19.54;44.89
66801;BME280;53703;50.326;19.122;2023-04-15T01:57:34;97426.20;;;19.59;44.67
66801;BME280;53703;50.326;19.122;2023-04-15T02:00:28;97422.17;;;19.63;44.67
66801;BME280;53703;50.326;19.122;2023-04-15T02:03:25;97427.00;;;19.61;44.52
66801;BME280;53703;50.326;19.122;2023-04-15T02:06:19;97437.05;;;19.62;44.50
66801;BME280;53703;50.326;19.122;2023-04-15T02:09:13;97445.56;;;19.61;44.63
66801;BME280;53703;50.326;19.122;2023-04-15T02:12:07;97450.55;;;19.59;44.39
66801;BME280;53703;50.326;19.122;2023-04-15T02:15:01;97454.72;;;19.57;44.60
66801;BME280;53703;50.326;19.122;2023-04-15T02:17:56;97453.15;;;19.58;44.51
66801;BME280;53703;50.326;19.122;2023-04-15T02:20:51;97453.92;;;19.53;44.52
66801;BME280;53703;50.326;19.122;2023-04-15T02:23:45;97455.35;;;19.56;44.81
66801;BME280;53703;50.326;19.122;2023-04-15T02:26:40;97454.71;;;19.54;44.73
66801;BME280;53703;50.326;19.122;2023-04-15T02:29:34;97453.06;;;19.58;44.61
66801;BME280;53703;50.326;19.122;2023-04-15T02:32:29;97454.59;;;19.58;44.86
66801;BME280;53703;50.326;19.122;2023-04-15T02:35:23;97452.73;;;19.53;44.94
66801;BME280;53703;50.326;19.122;2023-04-15T02:38:17;97454.95;;;19.53;44.96
66801;BME280;53703;50.326;19.122;2023-04-15T02:41:11;97460.39;;;19.50;44.95
66801;BME280;53703;50.326;19.122;2023-04-15T02:44:05;97464.19;;;19.50;44.96
66801;BME280;53703;50.326;19.122;2023-04-15T02:47:02;97462.20;;;19.50;44.87
66801;BME280;53703;50.326;19.122;2023-04-15T02:49:58;97469.01;;;19.49;44.98
66801;BME280;53703;50.326;19.122;2023-04-15T02:52:53;97473.26;;;19.47;44.83
66801;BME280;53703;50.326;19.122;2023-04-15T02:55:46;97478.81;;;19.48;45.01
66801;BME280;53703;50.326;19.122;2023-04-15T02:58:41;97480.14;;;19.46;44.90
66801;BME280;53703;50.326;19.122;2023-04-15T03:01:36;97484.73;;;19.47;44.76
66801;BME280;53703;50.326;19.122;2023-04-15T03:04:29;97489.31;;;19.47;44.54
66801;BME280;53703;50.326;19.122;2023-04-15T03:07:23;97491.27;;;19.42;45.01
66801;BME280;53703;50.326;19.122;2023-04-15T03:10:17;97494.58;;;19.41;44.68
66801;BME280;53703;50.326;19.122;2023-04-15T03:13:11;97502.27;;;19.45;44.80
66801;BME280;53703;50.326;19.122;2023-04-15T03:16:06;97501.20;;;19.41;44.83
66801;BME280;53703;50.326;19.122;2023-04-15T03:19:00;97511.64;;;19.37;44.89
66801;BME280;53703;50.326;19.122;2023-04-15T03:21:54;97508.00;;;19.37;44.69
66801;BME280;53703;50.326;19.122;2023-04-15T03:24:48;97507.16;;;19.43;44.63
66801;BME280;53703;50.326;19.122;2023-04-15T03:27:42;97501.56;;;19.33;44.75
66801;BME280;53703;50.326;19.122;2023-04-15T03:30:36;97506.67;;;19.42;44.77
66801;BME280;53703;50.326;19.122;2023-04-15T03:33:29;97505.34;;;19.44;44.75
66801;BME280;53703;50.326;19.122;2023-04-15T03:36:23;97509.59;;;19.39;44.50
66801;BME280;53703;50.326;19.122;2023-04-15T03:39:18;97513.30;;;19.36;44.49
66801;BME280;53703;50.326;19.122;2023-04-15T03:42:12;97518.27;;;19.37;44.89
66801;BME280;53703;50.326;19.122;2023-04-15T03:45:09;97520.81;;;19.39;44.61
66801;BME280;53703;50.326;19.122;2023-04-15T03:48:03;97526.08;;;19.34;44.65
66801;BME280;53703;50.326;19.122;2023-04-15T03:51:09;97534.98;;;19.29;44.96
66801;BME280;53703;50.326;19.122;2023-04-15T03:54:04;97537.67;;;19.30;44.41
66801;BME280;53703;50.326;19.122;2023-04-15T03:56:57;97542.59;;;19.33;44.35
66801;BME280;53703;50.326;19.122;2023-04-15T03:59:51;97544.32;;;19.30;44.13
66801;BME280;53703;50.326;19.122;2023-04-15T04:02:45;97543.52;;;19.28;44.14
66801;BME280;53703;50.326;19.122;2023-04-15T04:05:39;97549.14;;;19.33;43.93
66801;BME280;53703;50.326;19.122;2023-04-15T04:08:35;97550.31;;;19.30;43.96
66801;BME280;53703;50.326;19.122;2023-04-15T04:11:29;97551.65;;;19.28;43.79
66801;BME280;53703;50.326;19.122;2023-04-15T04:14:23;97550.30;;;19.40;43.64
66801;BME280;53703;50.326;19.122;2023-04-15T04:17:21;97547.86;;;19.29;43.50
66801;BME280;53703;50.326;19.122;2023-04-15T04:20:15;97551.25;;;19.28;43.50
66801;BME280;53703;50.326;19.122;2023-04-15T04:23:09;97562.70;;;19.25;43.55
66801;BME280;53703;50.326;19.122;2023-04-15T04:26:02;97564.23;;;19.29;43.31
66801;BME280;53703;50.326;19.122;2023-04-15T04:28:56;97570.36;;;19.26;43.34
66801;BME280;53703;50.326;19.122;2023-04-15T04:31:50;97573.55;;;19.28;43.44
66801;BME280;53703;50.326;19.122;2023-04-15T04:34:44;97573.67;;;19.24;43.29
66801;BME280;53703;50.326;19.122;2023-04-15T04:37:38;97584.39;;;19.31;43.33
66801;BME280;53703;50.326;19.122;2023-04-15T04:40:32;97588.02;;;19.32;42.98
66801;BME280;53703;50.326;19.122;2023-04-15T04:43:26;97590.14;;;19.28;43.47
66801;BME280;53703;50.326;19.122;2023-04-15T04:46:20;97587.92;;;19.27;43.39
66801;BME280;53703;50.326;19.122;2023-04-15T04:49:15;97590.84;;;19.28;43.37
66801;BME280;53703;50.326;19.122;2023-04-15T04:52:08;97591.20;;;18.86;45.11
66801;BME280;53703;50.326;19.122;2023-04-15T04:55:03;97588.90;;;18.60;45.93
66801;BME280;53703;50.326;19.122;2023-04-15T04:57:58;97586.17;;;19.07;45.39
66801;BME280;53703;50.326;19.122;2023-04-15T05:00:52;97587.30;;;19.19;45.10
66801;BME280;53703;50.326;19.122;2023-04-15T05:03:42;97583.38;;;19.24;45.13
66801;BME280;53703;50.326;19.122;2023-04-15T05:06:37;97586.85;;;19.31;44.76
66801;BME280;53703;50.326;19.122;2023-04-15T05:09:31;97585.56;;;19.29;44.39
66801;BME280;53703;50.326;19.122;2023-04-15T05:12:27;97588.48;;;19.28;44.71
66801;BME280;53703;50.326;19.122;2023-04-15T05:15:21;97589.66;;;19.28;44.54
66801;BME280;53703;50.326;19.122;2023-04-15T05:18:15;97581.65;;;19.35;44.54
66801;BME280;53703;50.326;19.122;2023-04-15T05:21:09;97587.88;;;19.34;44.42
66801;BME280;53703;50.326;19.122;2023-04-15T05:24:04;97586.58;;;19.29;43.84
66801;BME280;53703;50.326;19.122;2023-04-15T05:26:58;97589.54;;;19.32;44.06
66801;BME280;53703;50.326;19.122;2023-04-15T05:29:53;97589.66;;;19.28;44.14
66801;BME280;53703;50.326;19.122;2023-04-15T05:32:48;97593.39;;;19.19;44.20
66801;BME280;53703;50.326;19.122;2023-04-15T05:35:42;97600.06;;;19.23;44.58
66801;BME280;53703;50.326;19.122;2023-04-15T05:38:35;97599.67;;;19.25;43.85
66801;BME280;53703;50.326;19.122;2023-04-15T05:41:29;97601.81;;;19.25;43.81
66801;BME280;53703;50.326;19.122;2023-04-15T05:44:23;97603.92;;;19.33;43.91
66801;BME280;53703;50.326;19.122;2023-04-15T05:47:18;97600.27;;;19.30;44.01
66801;BME280;53703;50.326;19.122;2023-04-15T05:50:12;97605.30;;;19.39;43.94
66801;BME280;53703;50.326;19.122;2023-04-15T05:53:06;97611.06;;;19.36;44.39
66801;BME280;53703;50.326;19.122;2023-04-15T05:56:00;97618.23;;;19.34;43.96
66801;BME280;53703;50.326;19.122;2023-04-15T05:58:54;97618.63;;;19.32;43.78
66801;BME280;53703;50.326;19.122;2023-04-15T06:01:48;97619.20;;;19.26;43.89
66801;BME280;53703;50.326;19.122;2023-04-15T06:04:43;97622.51;;;19.23;43.87
66801;BME280;53703;50.326;19.122;2023-04-15T06:07:37;97627.59;;;19.28;43.56
66801;BME280;53703;50.326;19.122;2023-04-15T06:10:31;97628.13;;;19.26;43.73
66801;BME280;53703;50.326;19.122;2023-04-15T06:13:28;97628.30;;;19.26;43.57
66801;BME280;53703;50.326;19.122;2023-04-15T06:16:21;97634.25;;;19.31;43.43
66801;BME280;53703;50.326;19.122;2023-04-15T06:19:15;97639.16;;;19.42;43.32
66801;BME280;53703;50.326;19.122;2023-04-15T06:22:09;97639.59;;;19.25;43.79
66801;BME280;53703;50.326;19.122;2023-04-15T06:25:04;97636.52;;;19.28;43.62
66801;BME280;53703;50.326;19.122;2023-04-15T06:27:59;97634.11;;;19.31;43.29
66801;BME280;53703;50.326;19.122;2023-04-15T06:30:54;97634.58;;;19.41;43.01
66801;BME280;53703;50.326;19.122;2023-04-15T06:33:48;97638.19;;;19.38;43.73
66801;BME280;53703;50.326;19.122;2023-04-15T06:36:43;97647.75;;;19.38;43.95
66801;BME280;53703;50.326;19.122;2023-04-15T06:39:37;97642.77;;;19.39;43.40
66801;BME280;53703;50.326;19.122;2023-04-15T06:42:31;97645.79;;;19.39;43.51
66801;BME280;53703;50.326;19.122;2023-04-15T06:45:25;97649.55;;;19.47;43.05
66801;BME280;53703;50.326;19.122;2023-04-15T06:48:19;97649.05;;;19.66;42.72
66801;BME280;53703;50.326;19.122;2023-04-15T06:51:13;97655.66;;;19.49;43.56
66801;BME280;53703;50.326;19.122;2023-04-15T06:54:07;97649.45;;;19.43;43.69
66801;BME280;53703;50.326;19.122;2023-04-15T06:57:01;97656.35;;;19.46;43.50
66801;BME280;53703;50.326;19.122;2023-04-15T06:59:55;97662.53;;;19.48;43.66
66801;BME280;53703;50.326;19.122;2023-04-15T07:03:10;97665.85;;;19.48;43.11
66801;BME280;53703;50.326;19.122;2023-04-15T07:06:04;97665.48;;;19.52;42.68
66801;BME280;53703;50.326;19.122;2023-04-15T07:08:58;97666.25;;;19.48;42.69
66801;BME280;53703;50.326;19.122;2023-04-15T07:11:54;97666.33;;;19.60;43.07
66801;BME280;53703;50.326;19.122;2023-04-15T07:14:47;97671.91;;;19.46;42.50
66801;BME280;53703;50.326;19.122;2023-04-15T07:17:42;97678.52;;;19.61;42.08
66801;BME280;53703;50.326;19.122;2023-04-15T07:20:36;97682.70;;;19.49;42.85
66801;BME280;53703;50.326;19.122;2023-04-15T07:23:30;97682.16;;;19.62;43.00
66801;BME280;53703;50.326;19.122;2023-04-15T07:26:24;97679.66;;;19.55;42.25
66801;BME280;53703;50.326;19.122;2023-04-15T07:29:17;97681.38;;;19.52;42.54
66801;BME280;53703;50.326;19.122;2023-04-15T07:32:11;97682.48;;;19.52;42.63
66801;BME280;53703;50.326;19.122;2023-04-15T07:35:05;97691.82;;;19.64;42.63
66801;BME280;53703;50.326;19.122;2023-04-15T07:37:59;97694.66;;;19.53;43.20
66801;BME280;53703;50.326;19.122;2023-04-15T07:40:53;97689.56;;;19.58;43.04
66801;BME280;53703;50.326;19.122;2023-04-15T07:43:48;97688.20;;;19.66;43.08
66801;BME280;53703;50.326;19.122;2023-04-15T07:46:42;97684.69;;;19.62;42.16
66801;BME280;53703;50.326;19.122;2023-04-15T07:49:35;97683.96;;;19.70;42.16
66801;BME280;53703;50.326;19.122;2023-04-15T07:52:30;97674.01;;;19.30;38.47
66801;BME280;53703;50.326;19.122;2023-04-15T07:55:26;97676.13;;;19.38;38.46
66801;BME280;53703;50.326;19.122;2023-04-15T07:58:21;97673.74;;;19.31;38.61
66801;BME280;53703;50.326;19.122;2023-04-15T08:01:15;97667.11;;;19.21;38.20
66801;BME280;53703;50.326;19.122;2023-04-15T08:04:09;97672.70;;;19.24;36.26
66801;BME280;53703;50.326;19.122;2023-04-15T08:07:04;97670.03;;;19.19;36.20
66801;BME280;53703;50.326;19.122;2023-04-15T08:09:58;97671.35;;;20.06;36.86
66801;BME280;53703;50.326;19.122;2023-04-15T08:12:51;97676.36;;;19.87;35.19
66801;BME280;53703;50.326;19.122;2023-04-15T08:15:52;97673.90;;;19.37;36.14
66801;BME280;53703;50.326;19.122;2023-04-15T08:18:46;97675.09;;;19.21;39.07
66801;BME280;53703;50.326;19.122;2023-04-15T08:21:40;97678.93;;;17.90;42.63
66801;BME280;53703;50.326;19.122;2023-04-15T08:24:18;97677.78;;;18.14;37.57
66801;BME280;53703;50.326;19.122;2023-04-15T08:27:12;97679.38;;;17.87;36.60
66801;BME280;53703;50.326;19.122;2023-04-15T08:30:09;97676.97;;;17.95;35.68
66801;BME280;53703;50.326;19.122;2023-04-15T08:33:02;97677.83;;;17.58;35.22
66801;BME280;53703;50.326;19.122;2023-04-15T08:35:56;97674.59;;;17.84;35.24
66801;BME280;53703;50.326;19.122;2023-04-15T08:38:50;97671.45;;;17.64;36.24
66801;BME280;53703;50.326;19.122;2023-04-15T08:41:50;97671.19;;;17.72;34.90
66801;BME280;53703;50.326;19.122;2023-04-15T08:44:46;97675.14;;;17.95;35.11
66801;BME280;53703;50.326;19.122;2023-04-15T08:47:40;97679.45;;;18.74;34.57
66801;BME280;53703;50.326;19.122;2023-04-15T08:50:35;97682.58;;;19.24;34.49
66801;BME280;53703;50.326;19.122;2023-04-15T08:53:30;97676.12;;;19.37;34.95
66801;BME280;53703;50.326;19.122;2023-04-15T08:56:26;97680.16;;;19.49;34.80
66801;BME280;53703;50.326;19.122;2023-04-15T08:59:21;97679.66;;;19.78;34.53
66801;BME280;53703;50.326;19.122;2023-04-15T09:02:15;97682.02;;;18.94;36.46
66801;BME280;53703;50.326;19.122;2023-04-15T09:05:10;97683.55;;;19.28;35.29
66801;BME280;53703;50.326;19.122;2023-04-15T09:08:05;97687.20;;;19.60;34.55
66801;BME280;53703;50.326;19.122;2023-04-15T09:10:59;97689.46;;;18.26;34.41
66801;BME280;53703;50.326;19.122;2023-04-15T09:13:53;97690.73;;;18.21;34.32
66801;BME280;53703;50.326;19.122;2023-04-15T09:17:04;97690.23;;;17.80;35.36
66801;BME280;53703;50.326;19.122;2023-04-15T09:20:13;97690.14;;;17.90;34.79
66801;BME280;53703;50.326;19.122;2023-04-15T09:23:14;97690.03;;;17.88;35.09
66801;BME280;53703;50.326;19.122;2023-04-15T09:26:09;97689.84;;;17.64;38.33
66801;BME280;53703;50.326;19.122;2023-04-15T09:29:07;97687.27;;;17.41;39.48
66801;BME280;53703;50.326;19.122;2023-04-15T09:32:12;97690.73;;;17.26;39.94
66801;BME280;53703;50.326;19.122;2023-04-15T09:35:14;97686.90;;;17.48;39.53
66801;BME280;53703;50.326;19.122;2023-04-15T09:38:10;97688.48;;;17.09;40.14
66801;BME280;53703;50.326;19.122;2023-04-15T09:41:04;97684.68;;;17.32;38.56
66801;BME280;53703;50.326;19.122;2023-04-15T09:44:22;97687.28;;;17.37;39.11
66801;BME280;53703;50.326;19.122;2023-04-15T09:47:30;97684.54;;;17.33;39.68
66801;BME280;53703;50.326;19.122;2023-04-15T09:50:27;97680.59;;;17.85;39.19
66801;BME280;53703;50.326;19.122;2023-04-15T09:53:23;97677.34;;;18.41;38.11
66801;BME280;53703;50.326;19.122;2023-04-15T09:56:17;97681.08;;;18.64;37.57
66801;BME280;53703;50.326;19.122;2023-04-15T09:59:19;97676.70;;;17.78;38.70
66801;BME280;53703;50.326;19.122;2023-04-15T10:02:14;97678.55;;;17.48;39.07
66801;BME280;53703;50.326;19.122;2023-04-15T10:05:11;97678.70;;;18.12;38.23
66801;BME280;53703;50.326;19.122;2023-04-15T10:08:06;97681.84;;;18.30;37.40
66801;BME280;53703;50.326;19.122;2023-04-15T10:11:02;97682.85;;;18.59;36.66
66801;BME280;53703;50.326;19.122;2023-04-15T10:13:57;97682.34;;;18.72;36.43
66801;BME280;53703;50.326;19.122;2023-04-15T10:16:52;97681.40;;;18.78;36.77
66801;BME280;53703;50.326;19.122;2023-04-15T10:19:49;97680.39;;;18.96;36.51
66801;BME280;53703;50.326;19.122;2023-04-15T10:22:47;97685.27;;;19.16;37.22
66801;BME280;53703;50.326;19.122;2023-04-15T10:25:41;97692.05;;;19.35;37.01
66801;BME280;53703;50.326;19.122;2023-04-15T10:28:35;97686.15;;;19.28;38.70
66801;BME280;53703;50.326;19.122;2023-04-15T10:31:29;97684.82;;;19.57;38.13
66801;BME280;53703;50.326;19.122;2023-04-15T10:34:24;97687.55;;;19.42;38.80
66801;BME280;53703;50.326;19.122;2023-04-15T10:37:34;97688.60;;;19.57;38.57
66801;BME280;53703;50.326;19.122;2023-04-15T10:40:30;97684.66;;;19.29;38.79
66801;BME280;53703;50.326;19.122;2023-04-15T10:43:28;97687.61;;;19.00;39.00
66801;BME280;53703;50.326;19.122;2023-04-15T10:46:33;97690.01;;;19.53;38.28
66801;BME280;53703;50.326;19.122;2023-04-15T10:49:28;97686.64;;;19.40;39.02
66801;BME280;53703;50.326;19.122;2023-04-15T10:52:27;97692.45;;;19.09;39.40
66801;BME280;53703;50.326;19.122;2023-04-15T10:55:24;97690.87;;;19.43;39.04
66801;BME280;53703;50.326;19.122;2023-04-15T10:58:18;97690.64;;;19.26;39.18
66801;BME280;53703;50.326;19.122;2023-04-15T11:01:15;97691.20;;;19.03;39.40
66801;BME280;53703;50.326;19.122;2023-04-15T11:04:09;97692.11;;;19.06;38.95
66801;BME280;53703;50.326;19.122;2023-04-15T11:07:09;97688.04;;;19.28;39.12
66801;BME280;53703;50.326;19.122;2023-04-15T11:10:03;97689.22;;;19.02;38.66
66801;BME280;53703;50.326;19.122;2023-04-15T11:13:25;97686.66;;;19.31;38.68
66801;BME280;53703;50.326;19.122;2023-04-15T11:16:20;97681.47;;;19.25;38.94
66801;BME280;53703;50.326;19.122;2023-04-15T11:19:14;97681.98;;;19.21;38.94
66801;BME280;53703;50.326;19.122;2023-04-15T11:22:12;97686.34;;;19.51;39.11
66801;BME280;53703;50.326;19.122;2023-04-15T11:25:04;97687.54;;;19.32;39.04
66801;BME280;53703;50.326;19.122;2023-04-15T11:28:00;97692.30;;;19.65;38.57
66801;BME280;53703;50.326;19.122;2023-04-15T11:30:55;97689.33;;;19.38;38.67
66801;BME280;53703;50.326;19.122;2023-04-15T11:34:09;97691.36;;;19.27;38.95
66801;BME280;53703;50.326;19.122;2023-04-15T11:37:05;97686.05;;;19.16;38.43
66801;BME280;53703;50.326;19.122;2023-04-15T11:40:01;97690.42;;;19.09;38.50
66801;BME280;53703;50.326;19.122;2023-04-15T11:43:08;97691.33;;;19.62;38.44
66801;BME280;53703;50.326;19.122;2023-04-15T11:46:03;97696.52;;;19.70;37.76
66801;BME280;53703;50.326;19.122;2023-04-15T11:48:57;97696.17;;;19.88;37.63
66801;BME280;53703;50.326;19.122;2023-04-15T11:51:51;97696.35;;;19.79;38.10
66801;BME280;53703;50.326;19.122;2023-04-15T11:54:45;97699.52;;;19.80;38.63
66801;BME280;53703;50.326;19.122;2023-04-15T11:57:39;97694.55;;;19.40;38.40
66801;BME280;53703;50.326;19.122;2023-04-15T12:00:33;97697.79;;;19.29;38.59
66801;BME280;53703;50.326;19.122;2023-04-15T12:03:29;97696.50;;;19.36;38.72
66801;BME280;53703;50.326;19.122;2023-04-15T12:06:28;97700.02;;;19.42;38.52
66801;BME280;53703;50.326;19.122;2023-04-15T12:09:26;97699.30;;;19.70;37.83
66801;BME280;53703;50.326;19.122;2023-04-15T12:12:22;97699.92;;;19.38;38.07
66801;BME280;53703;50.326;19.122;2023-04-15T12:15:22;97702.27;;;19.56;38.34
66801;BME280;53703;50.326;19.122;2023-04-15T12:18:21;97702.56;;;19.75;37.65
66801;BME280;53703;50.326;19.122;2023-04-15T12:21:19;97702.38;;;19.39;38.32
66801;BME280;53703;50.326;19.122;2023-04-15T12:24:13;97703.73;;;19.83;38.04
66801;BME280;53703;50.326;19.122;2023-04-15T12:27:09;97704.66;;;19.90;36.57
66801;BME280;53703;50.326;19.122;2023-04-15T12:30:08;97707.73;;;19.78;37.52
66801;BME280;53703;50.326;19.122;2023-04-15T12:33:03;97706.77;;;19.98;37.50
66801;BME280;53703;50.326;19.122;2023-04-15T12:35:58;97704.61;;;20.04;35.14
66801;BME280;53703;50.326;19.122;2023-04-15T12:39:04;97704.80;;;19.99;36.10
66801;BME280;53703;50.326;19.122;2023-04-15T12:41:59;97705.59;;;19.76;36.93
66801;BME280;53703;50.326;19.122;2023-04-15T12:44:53;97700.30;;;20.00;36.10
66801;BME280;53703;50.326;19.122;2023-04-15T12:47:49;97706.00;;;19.98;36.17
66801;BME280;53703;50.326;19.122;2023-04-15T12:50:43;97709.39;;;19.88;35.31
66801;BME280;53703;50.326;19.122;2023-04-15T12:53:37;97704.98;;;19.94;34.78
66801;BME280;53703;50.326;19.122;2023-04-15T12:56:31;97704.40;;;19.98;34.08
66801;BME280;53703;50.326;19.122;2023-04-15T12:59:25;97704.72;;;19.99;34.83
66801;BME280;53703;50.326;19.122;2023-04-15T13:02:19;97700.91;;;19.86;36.43
66801;BME280;53703;50.326;19.122;2023-04-15T13:05:17;97695.85;;;19.96;35.08
66801;BME280;53703;50.326;19.122;2023-04-15T13:08:11;97695.86;;;19.88;33.92
66801;BME280;53703;50.326;19.122;2023-04-15T13:11:05;97695.36;;;19.85;34.76
66801;BME280;53703;50.326;19.122;2023-04-15T13:13:59;97696.45;;;19.62;36.77
66801;BME280;53703;50.326;19.122;2023-04-15T13:16:54;97701.25;;;19.90;35.29
66801;BME280;53703;50.326;19.122;2023-04-15T13:19:47;97704.52;;;19.93;34.38
66801;BME280;53703;50.326;19.122;2023-04-15T13:22:42;97699.46;;;19.93;34.98
66801;BME280;53703;50.326;19.122;2023-04-15T13:25:35;97701.86;;;19.97;34.82
66801;BME280;53703;50.326;19.122;2023-04-15T13:28:29;97707.17;;;19.89;34.07
66801;BME280;53703;50.326;19.122;2023-04-15T13:31:23;97703.76;;;19.54;32.88
66801;BME280;53703;50.326;19.122;2023-04-15T13:34:17;97707.25;;;18.89;33.01
66801;BME280;53703;50.326;19.122;2023-04-15T13:37:11;97704.38;;;18.58;33.36
66801;BME280;53703;50.326;19.122;2023-04-15T13:40:07;97707.28;;;18.57;33.29
66801;BME280;53703;50.326;19.122;2023-04-15T13:43:01;97708.93;;;18.63;33.75
66801;BME280;53703;50.326;19.122;2023-04-15T13:45:56;97711.01;;;18.51;33.72
66801;BME280;53703;50.326;19.122;2023-04-15T13:48:50;97709.75;;;19.08;33.55
66801;BME280;53703;50.326;19.122;2023-04-15T13:51:44;97713.69;;;19.40;34.76
66801;BME280;53703;50.326;19.122;2023-04-15T13:54:38;97714.02;;;19.61;35.63
66801;BME280;53703;50.326;19.122;2023-04-15T13:57:32;97717.98;;;19.74;36.36
66801;BME280;53703;50.326;19.122;2023-04-15T14:00:27;97722.48;;;19.84;36.75
66801;BME280;53703;50.326;19.122;2023-04-15T14:03:20;97723.80;;;19.90;36.86
66801;BME280;53703;50.326;19.122;2023-04-15T14:06:14;97723.50;;;20.02;37.30
66801;BME280;53703;50.326;19.122;2023-04-15T14:09:08;97723.33;;;19.90;37.62
66801;BME280;53703;50.326;19.122;2023-04-15T14:12:03;97722.80;;;19.94;39.25
66801;BME280;53703;50.326;19.122;2023-04-15T14:14:57;97726.25;;;19.99;38.04
66801;BME280;53703;50.326;19.122;2023-04-15T14:17:51;97728.23;;;19.99;37.98
66801;BME280;53703;50.326;19.122;2023-04-15T14:20:45;97730.90;;;19.88;39.20
66801;BME280;53703;50.326;19.122;2023-04-15T14:23:39;97733.50;;;20.06;38.31
66801;BME280;53703;50.326;19.122;2023-04-15T14:26:33;97737.30;;;19.99;39.17
66801;BME280;53703;50.326;19.122;2023-04-15T14:29:27;97735.21;;;20.01;39.36
66801;BME280;53703;50.326;19.122;2023-04-15T14:32:23;97734.99;;;20.05;38.81
66801;BME280;53703;50.326;19.122;2023-04-15T14:35:18;97737.89;;;19.70;36.99
66801;BME280;53703;50.326;19.122;2023-04-15T14:38:12;97738.55;;;19.94;37.64
66801;BME280;53703;50.326;19.122;2023-04-15T14:41:09;97738.23;;;19.72;38.07
66801;BME280;53703;50.326;19.122;2023-04-15T14:44:03;97740.15;;;19.57;37.89
66801;BME280;53703;50.326;19.122;2023-04-15T14:46:57;97741.36;;;19.78;39.05
66801;BME280;53703;50.326;19.122;2023-04-15T14:49:59;97741.48;;;19.65;38.83
66801;BME280;53703;50.326;19.122;2023-04-15T14:52:53;97743.82;;;19.99;38.86
66801;BME280;53703;50.326;19.122;2023-04-15T14:55:48;97748.75;;;20.15;38.91
66801;BME280;53703;50.326;19.122;2023-04-15T14:58:42;97751.51;;;19.92;38.88
66801;BME280;53703;50.326;19.122;2023-04-15T15:01:37;97755.30;;;19.81;38.38
66801;BME280;53703;50.326;19.122;2023-04-15T15:04:32;97758.26;;;19.75;38.30
66801;BME280;53703;50.326;19.122;2023-04-15T15:07:27;97755.42;;;19.87;38.40
66801;BME280;53703;50.326;19.122;2023-04-15T15:10:21;97762.09;;;19.88;39.19
66801;BME280;53703;50.326;19.122;2023-04-15T15:13:36;97764.94;;;20.20;38.93
66801;BME280;53703;50.326;19.122;2023-04-15T15:16:30;97760.44;;;19.91;39.77